createdAt,value
2022-12-14T00:01:34.859Z,15.77
2022-12-14T00:04:01.548Z,12.85
2022-12-14T00:06:31.015Z,14.55
2022-12-14T00:08:59.969Z,11.35
2022-12-14T00:11:27.893Z,12.30
2022-12-14T00:13:59.694Z,13.35
2022-12-14T00:16:30.971Z,5.90
2022-12-14T00:18:59.879Z,16.50
2022-12-14T00:21:27.466Z,15.73
2022-12-14T00:23:54.939Z,21.60
2022-12-14T00:26:24.866Z,18.55
2022-12-14T00:28:53.432Z,18.98
2022-12-14T00:31:21.461Z,18.17
2022-12-14T00:33:48.733Z,15.23
2022-12-14T00:36:15.424Z,16.75
2022-12-14T00:38:42.817Z,16.30
2022-12-14T00:41:10.769Z,16.83
2022-12-14T00:43:38.176Z,18.05
2022-12-14T00:46:04.964Z,16.42
2022-12-14T00:48:32.349Z,16.33
2022-12-14T00:50:59.436Z,16.67
2022-12-14T00:53:26.484Z,14.00
2022-12-14T00:55:53.294Z,18.00
2022-12-14T00:58:23.052Z,23.83
2022-12-14T01:01:01.908Z,20.42
2022-12-14T01:03:29.109Z,17.75
2022-12-14T01:05:56.454Z,21.08
2022-12-14T01:08:23.683Z,17.20
2022-12-14T01:10:50.990Z,11.25
2022-12-14T01:13:18.081Z,23.90
2022-12-14T01:15:44.882Z,22.45
2022-12-14T01:18:11.674Z,16.42
2022-12-14T01:20:38.296Z,20.67
2022-12-14T01:23:04.958Z,17.25
2022-12-14T01:25:31.705Z,16.98
2022-12-14T01:27:58.385Z,18.48
2022-12-14T01:30:25.090Z,21.80
2022-12-14T01:32:51.766Z,17.95
2022-12-14T01:35:18.460Z,16.58
2022-12-14T01:37:45.172Z,17.70
2022-12-14T01:40:15.668Z,21.85
2022-12-14T01:42:42.330Z,16.40
2022-12-14T01:45:22.288Z,22.10
2022-12-14T01:47:55.974Z,18.02
2022-12-14T01:50:26.326Z,17.60
2022-12-14T01:52:57.790Z,18.25
2022-12-14T01:55:34.373Z,17.37
2022-12-14T01:58:15.387Z,23.75
2022-12-14T02:00:43.668Z,23.40
2022-12-14T02:03:15.026Z,15.10
2022-12-14T02:05:50.662Z,21.85
2022-12-14T02:08:19.406Z,22.85
2022-12-14T02:10:47.370Z,15.70
2022-12-14T02:13:25.905Z,23.80
2022-12-14T02:15:53.297Z,24.20
2022-12-14T02:18:26.284Z,24.40
2022-12-14T02:21:14.418Z,20.75
2022-12-14T02:23:53.507Z,20.23
2022-12-14T02:26:52.192Z,19.27
2022-12-14T02:29:46.050Z,22.15
2022-12-14T02:32:33.958Z,11.93
2022-12-14T02:35:37.708Z,23.67
2022-12-14T02:38:25.800Z,20.00
2022-12-14T02:41:27.570Z,26.63
2022-12-14T02:44:06.713Z,15.75
2022-12-14T02:46:50.657Z,19.92
2022-12-14T02:49:42.399Z,26.85
2022-12-14T02:52:31.656Z,18.42
2022-12-14T02:55:05.496Z,22.52
2022-12-14T02:57:50.214Z,24.48
2022-12-14T03:00:17.032Z,17.73
2022-12-14T03:02:45.604Z,19.88
2022-12-14T03:05:12.647Z,24.50
2022-12-14T03:07:48.624Z,21.60
2022-12-14T03:10:34.222Z,22.10
2022-12-14T03:13:34.736Z,21.00
2022-12-14T03:16:08.055Z,12.45
2022-12-14T03:18:42.887Z,21.95
2022-12-14T03:21:13.641Z,20.50
2022-12-14T03:23:43.714Z,25.45
2022-12-14T03:26:26.471Z,21.08
2022-12-14T03:28:56.659Z,15.38
2022-12-14T03:31:40.003Z,24.98
2022-12-14T03:34:13.154Z,20.00
2022-12-14T03:36:59.294Z,20.30
2022-12-14T03:39:32.095Z,20.73
2022-12-14T03:42:26.531Z,24.58
2022-12-14T03:45:30.481Z,24.30
2022-12-14T03:48:35.141Z,21.90
2022-12-14T03:51:18.437Z,21.88
2022-12-14T03:54:21.237Z,18.65
2022-12-14T03:56:53.214Z,26.13
2022-12-14T03:59:48.673Z,18.30
2022-12-14T04:02:26.276Z,22.98
2022-12-14T04:05:06.093Z,22.05
2022-12-14T04:07:46.521Z,24.13
2022-12-14T04:13:27.321Z,16.45
2022-12-14T04:16:14.639Z,21.33
2022-12-14T04:19:00.626Z,14.50
2022-12-14T04:21:43.058Z,27.58
2022-12-14T04:24:41.461Z,31.27
2022-12-14T04:27:20.531Z,16.90
2022-12-14T04:29:56.775Z,26.55
2022-12-14T04:32:41.706Z,21.83
2022-12-14T04:35:39.790Z,25.05
2022-12-14T04:38:22.181Z,21.05
2022-12-14T04:41:11.591Z,20.70
2022-12-14T04:43:43.875Z,27.58
2022-12-14T04:46:41.104Z,22.23
2022-12-14T04:49:12.630Z,18.45
2022-12-14T04:52:05.439Z,20.67
2022-12-14T04:54:40.290Z,27.80
2022-12-14T04:57:12.249Z,26.05
2022-12-14T04:59:43.858Z,27.50
2022-12-14T05:02:40.889Z,25.13
2022-12-14T05:05:25.646Z,19.65
2022-12-14T05:08:14.213Z,28.45
2022-12-14T05:10:44.920Z,28.15
2022-12-14T05:13:24.723Z,24.70
2022-12-14T05:15:55.399Z,15.75
2022-12-14T05:18:23.225Z,27.38
2022-12-14T05:20:50.669Z,27.67
2022-12-14T05:23:17.609Z,28.55
2022-12-14T05:25:44.406Z,23.80
2022-12-14T05:28:15.916Z,27.27
2022-12-14T05:30:42.732Z,21.55
2022-12-14T05:33:19.894Z,22.38
2022-12-14T05:35:46.877Z,25.23
2022-12-14T05:38:13.550Z,17.17
2022-12-14T05:40:40.275Z,27.38
2022-12-14T05:43:08.864Z,23.08
2022-12-14T05:45:35.506Z,29.23
2022-12-14T05:48:02.400Z,26.30
2022-12-14T05:50:29.034Z,29.58
2022-12-14T05:52:55.985Z,29.15
2022-12-14T05:55:22.742Z,23.25
2022-12-14T05:57:49.392Z,25.17
2022-12-14T06:00:16.186Z,26.45
2022-12-14T06:02:43.019Z,28.52
2022-12-14T06:05:09.754Z,31.70
2022-12-14T06:07:36.392Z,30.30
2022-12-14T06:10:03.260Z,33.00
2022-12-14T06:12:30.561Z,30.83
2022-12-14T06:14:57.189Z,29.17
2022-12-14T06:17:23.872Z,26.65
2022-12-14T06:19:50.669Z,26.90
2022-12-14T06:22:17.968Z,29.80
2022-12-14T06:24:44.630Z,29.30
2022-12-14T06:27:11.269Z,27.10
2022-12-14T06:29:37.963Z,29.98
2022-12-14T06:32:04.843Z,28.75
2022-12-14T06:34:35.388Z,29.48
2022-12-14T06:37:06.296Z,33.55
2022-12-14T06:39:33.199Z,25.65
2022-12-14T06:41:59.853Z,31.17
2022-12-14T06:44:26.622Z,33.38
2022-12-14T06:46:53.357Z,29.40
2022-12-14T06:49:20.118Z,30.75
2022-12-14T06:51:46.799Z,32.03
2022-12-14T06:54:15.150Z,33.10
2022-12-14T06:56:43.596Z,27.85
2022-12-14T06:59:10.710Z,25.80
2022-12-14T07:01:38.547Z,32.50
2022-12-14T07:04:06.375Z,36.80
2022-12-14T07:06:36.727Z,33.38
2022-12-14T07:09:04.969Z,29.10
2022-12-14T07:11:32.050Z,25.38
2022-12-14T07:14:05.986Z,32.05
2022-12-14T07:16:34.902Z,41.60
2022-12-14T07:19:01.656Z,33.30
2022-12-14T07:21:28.325Z,33.78
2022-12-14T07:23:55.183Z,32.40
2022-12-14T07:26:27.618Z,31.75
2022-12-14T07:31:25.938Z,35.67
2022-12-14T07:33:54.902Z,33.35
2022-12-14T07:36:22.961Z,32.35
2022-12-14T07:38:50.852Z,33.28
2022-12-14T07:41:24.083Z,31.02
2022-12-14T07:43:51.917Z,36.60
2022-12-14T07:46:21.496Z,26.05
2022-12-14T07:48:50.668Z,30.30
2022-12-14T07:51:19.652Z,30.75
2022-12-14T07:53:46.394Z,34.92
2022-12-14T07:56:19.527Z,32.33
2022-12-14T07:58:46.479Z,35.10
2022-12-14T08:01:19.366Z,26.10
2022-12-14T08:03:57.854Z,31.92
2022-12-14T08:06:26.734Z,30.48
2022-12-14T08:08:54.299Z,38.60
2022-12-14T08:11:22.359Z,32.50
2022-12-14T08:14:07.026Z,34.85
2022-12-14T08:16:33.936Z,28.00
2022-12-14T08:19:01.333Z,30.77
2022-12-14T08:21:28.319Z,28.67
2022-12-14T08:23:57.186Z,34.88
2022-12-14T08:26:30.141Z,36.47
2022-12-14T08:29:00.123Z,35.20
2022-12-14T08:31:28.360Z,34.22
2022-12-14T08:33:55.525Z,29.17
2022-12-14T08:36:28.029Z,31.52
2022-12-14T08:38:56.597Z,34.00
2022-12-14T08:41:24.966Z,35.03
2022-12-14T08:43:56.701Z,38.83
2022-12-14T08:46:24.766Z,34.50
2022-12-14T08:48:53.352Z,41.50
2022-12-14T08:51:20.906Z,34.20
2022-12-14T08:53:48.127Z,32.85
2022-12-14T08:56:18.672Z,40.58
2022-12-14T08:58:45.509Z,31.63
2022-12-14T09:01:16.016Z,36.60
2022-12-14T09:03:44.720Z,35.90
2022-12-14T09:06:15.372Z,36.33
2022-12-14T09:08:42.397Z,29.67
2022-12-14T09:11:12.918Z,20.55
2022-12-14T09:13:40.236Z,31.17
2022-12-14T09:16:10.927Z,32.63
2022-12-14T09:18:37.826Z,26.10
2022-12-14T09:21:04.714Z,30.83
2022-12-14T09:23:33.500Z,27.15
2022-12-14T09:26:07.136Z,30.75
2022-12-14T09:28:36.690Z,31.60
2022-12-14T09:31:06.900Z,32.42
2022-12-14T09:33:34.403Z,31.92
2022-12-14T09:36:08.380Z,31.80
2022-12-14T09:38:36.655Z,34.63
2022-12-14T09:41:07.924Z,22.55
2022-12-14T09:43:43.575Z,31.30
2022-12-14T09:46:24.390Z,30.45
2022-12-14T09:48:52.696Z,28.98
2022-12-14T09:51:22.670Z,34.80
2022-12-14T09:54:02.165Z,33.13
2022-12-14T09:56:29.419Z,29.48
2022-12-14T09:58:58.551Z,26.73
2022-12-14T10:01:55.541Z,31.75
2022-12-14T10:04:47.843Z,27.25
2022-12-14T10:07:34.808Z,34.42
2022-12-14T10:10:13.838Z,29.80
2022-12-14T10:12:40.450Z,32.58
2022-12-14T10:15:44.777Z,33.80
2022-12-14T10:21:33.275Z,30.77
2022-12-14T10:24:04.725Z,29.55
2022-12-14T10:26:53.779Z,33.55
2022-12-14T10:30:04.677Z,33.17
2022-12-14T10:32:39.565Z,32.28
2022-12-14T10:35:20.614Z,32.42
2022-12-14T10:37:53.650Z,28.17
2022-12-14T10:40:33.668Z,29.20
2022-12-14T10:43:29.958Z,34.03
2022-12-14T10:46:22.395Z,25.83
2022-12-14T10:49:04.258Z,24.02
2022-12-14T10:51:37.726Z,29.33
2022-12-14T10:54:30.537Z,28.63
2022-12-14T10:59:39.783Z,25.65
2022-12-14T11:02:17.006Z,19.60
2022-12-14T11:05:00.512Z,29.38
2022-12-14T11:07:39.396Z,26.98
2022-12-14T11:10:22.872Z,29.75
2022-12-14T11:12:55.536Z,25.15
2022-12-14T11:15:38.119Z,27.13
2022-12-14T11:20:34.406Z,25.38
2022-12-14T11:23:17.680Z,25.55
2022-12-14T11:25:50.806Z,28.02
2022-12-14T11:28:39.807Z,29.30
2022-12-14T11:31:27.902Z,21.88
2022-12-14T11:33:57.005Z,26.88
2022-12-14T11:36:38.562Z,28.70
2022-12-14T11:39:14.270Z,26.92
2022-12-14T11:41:47.323Z,26.58
2022-12-14T11:44:17.078Z,30.67
2022-12-14T11:46:58.029Z,28.45
2022-12-14T11:49:37.733Z,27.08
2022-12-14T11:52:04.350Z,25.10
2022-12-14T11:54:39.130Z,24.50
2022-12-14T11:57:10.513Z,30.10
2022-12-14T11:59:42.740Z,29.60
2022-12-14T12:02:16.992Z,31.60
2022-12-14T12:04:47.741Z,29.85
2022-12-14T12:10:14.735Z,25.55
2022-12-14T12:13:01.024Z,28.25
2022-12-14T12:15:41.059Z,25.70
2022-12-14T12:18:35.713Z,27.42
2022-12-14T12:21:02.272Z,24.00
2022-12-14T12:23:36.197Z,24.20
2022-12-14T12:26:13.001Z,27.77
2022-12-14T12:28:43.788Z,28.40
2022-12-14T12:31:19.401Z,28.17
2022-12-14T12:34:17.179Z,33.50
2022-12-14T12:37:17.092Z,34.50
2022-12-14T12:39:35.636Z,31.88
2022-12-14T12:42:20.686Z,31.08
2022-12-14T12:45:21.623Z,26.23
2022-12-14T12:47:54.797Z,29.30
2022-12-14T12:50:26.236Z,30.73
2022-12-14T12:52:57.809Z,33.45
2022-12-14T12:55:30.867Z,27.55
2022-12-14T12:58:01.695Z,26.38
2022-12-14T13:00:30.575Z,29.67
2022-12-14T13:03:25.106Z,32.30
2022-12-14T13:05:55.505Z,30.15
2022-12-14T13:08:37.262Z,32.53
2022-12-14T13:11:26.254Z,30.03
2022-12-14T13:14:02.789Z,29.05
2022-12-14T13:16:35.036Z,31.90
2022-12-14T13:19:51.716Z,31.23
2022-12-14T13:22:31.952Z,32.33
2022-12-14T13:25:06.584Z,29.60
2022-12-14T13:28:05.799Z,31.48
2022-12-14T13:30:43.331Z,28.75
2022-12-14T13:33:51.189Z,28.58
2022-12-14T13:36:36.962Z,30.05
2022-12-14T13:39:26.832Z,31.55
2022-12-14T13:41:59.594Z,34.08
2022-12-14T13:45:08.473Z,35.92
2022-12-14T13:47:45.963Z,35.42
2022-12-14T13:50:39.827Z,34.30
2022-12-14T13:53:31.570Z,31.92
2022-12-14T13:56:00.571Z,36.90
2022-12-14T13:58:44.570Z,33.20
2022-12-14T14:01:35.729Z,37.15
2022-12-14T14:04:11.550Z,39.72
2022-12-14T14:06:45.641Z,40.33
2022-12-14T14:09:31.365Z,38.03
2022-12-14T14:12:25.888Z,37.92
2022-12-14T14:15:00.458Z,35.03
2022-12-14T14:17:46.666Z,44.17
2022-12-14T14:20:31.746Z,33.10
2022-12-14T14:23:14.264Z,37.72
2022-12-14T14:25:46.711Z,40.47
2022-12-14T14:28:29.667Z,33.58
2022-12-14T14:30:58.631Z,34.85
2022-12-14T14:33:47.684Z,40.50
2022-12-14T14:36:33.271Z,33.20
2022-12-14T14:39:02.410Z,38.45
2022-12-14T14:41:36.577Z,36.28
2022-12-14T14:44:18.527Z,39.60
2022-12-14T14:46:49.784Z,41.45
2022-12-14T14:49:26.179Z,42.00
2022-12-14T14:51:52.959Z,35.63
2022-12-14T14:57:33.381Z,40.42
2022-12-14T15:00:06.428Z,46.50
2022-12-14T15:02:42.168Z,46.25
2022-12-14T15:08:34.506Z,43.50
2022-12-14T15:11:05.357Z,37.00
2022-12-14T15:13:57.705Z,38.40
2022-12-14T15:16:41.828Z,42.85
2022-12-14T15:19:27.889Z,43.08
2022-12-14T15:21:58.386Z,45.50
2022-12-14T15:24:26.124Z,33.67
2022-12-14T15:26:53.777Z,36.30
2022-12-14T15:29:28.275Z,37.78
2022-12-14T15:31:59.967Z,45.30
2022-12-14T15:34:27.659Z,40.83
2022-12-14T15:36:55.258Z,41.85
2022-12-14T15:40:00.433Z,41.08
2022-12-14T15:42:27.774Z,30.58
2022-12-14T15:44:56.269Z,27.67
2022-12-14T15:47:30.773Z,26.95
2022-12-14T15:50:15.945Z,29.20
2022-12-14T15:52:44.446Z,29.27
2022-12-14T15:55:30.953Z,24.25
2022-12-14T15:58:01.061Z,21.15
2022-12-14T16:00:27.876Z,22.67
2022-12-14T16:02:54.990Z,19.55
2022-12-14T16:05:22.558Z,22.40
2022-12-14T16:07:58.553Z,19.98
2022-12-14T16:10:33.019Z,20.98
2022-12-14T16:13:23.198Z,17.25
2022-12-14T16:15:50.702Z,17.58
2022-12-14T16:18:18.559Z,16.65
2022-12-14T16:20:54.705Z,14.85
2022-12-14T16:23:24.072Z,17.23
2022-12-14T16:26:20.765Z,14.23
2022-12-14T16:28:48.037Z,15.90
2022-12-14T16:31:20.477Z,12.57
2022-12-14T16:34:05.375Z,13.52
2022-12-14T16:36:34.635Z,13.73
2022-12-14T16:39:05.749Z,15.73
2022-12-14T16:41:41.569Z,14.30
2022-12-14T16:44:19.808Z,14.52
2022-12-14T16:47:23.996Z,16.65
2022-12-14T16:49:55.177Z,13.75
2022-12-14T16:52:34.317Z,14.07
2022-12-14T16:55:13.248Z,13.57
2022-12-14T16:57:49.192Z,15.15
2022-12-14T17:00:37.765Z,18.80
2022-12-14T17:03:20.217Z,16.65
2022-12-14T17:06:08.710Z,15.13
2022-12-14T17:08:35.372Z,23.67
2022-12-14T17:11:02.336Z,20.63
2022-12-14T17:13:29.665Z,18.77
2022-12-14T17:16:00.213Z,19.10
2022-12-14T17:18:32.026Z,16.70
2022-12-14T17:20:59.777Z,18.25
2022-12-14T17:23:26.717Z,22.55
2022-12-14T17:25:53.556Z,20.23
2022-12-14T17:28:23.105Z,17.42
2022-12-14T17:30:51.191Z,20.45
2022-12-14T17:33:18.062Z,21.20
2022-12-14T17:35:44.743Z,19.23
2022-12-14T17:38:14.868Z,22.38
2022-12-14T17:40:42.394Z,21.73
2022-12-14T17:43:13.444Z,23.15
2022-12-14T17:45:40.518Z,22.67
2022-12-14T17:48:12.994Z,22.17
2022-12-14T17:53:13.516Z,18.98
2022-12-14T17:58:07.169Z,21.65
2022-12-14T18:00:52.506Z,21.48
2022-12-14T18:03:19.497Z,21.10
2022-12-14T18:05:51.515Z,20.75
2022-12-14T18:08:19.863Z,21.75
2022-12-14T18:10:48.737Z,20.40
2022-12-14T18:13:15.609Z,20.92
2022-12-14T18:15:49.766Z,20.65
2022-12-14T18:18:18.907Z,18.85
2022-12-14T18:20:49.766Z,20.08
2022-12-14T18:23:18.330Z,21.85
2022-12-14T18:25:48.537Z,20.63
2022-12-14T18:28:15.855Z,24.08
2022-12-14T18:30:49.659Z,19.35
2022-12-14T18:33:20.396Z,21.05
2022-12-14T18:35:49.067Z,16.70
2022-12-14T18:38:16.231Z,22.73
2022-12-14T18:40:51.044Z,17.55
2022-12-14T18:43:23.759Z,17.17
2022-12-14T18:45:53.097Z,14.60
2022-12-14T18:48:20.964Z,19.25
2022-12-14T18:50:49.658Z,19.88
2022-12-14T18:53:21.592Z,20.73
2022-12-14T18:55:49.459Z,20.13
2022-12-14T18:58:22.160Z,18.83
2022-12-14T19:00:54.622Z,19.45
2022-12-14T19:05:49.252Z,21.05
2022-12-14T19:08:15.925Z,19.13
2022-12-14T19:10:45.861Z,20.45
2022-12-14T19:13:20.340Z,18.83
2022-12-14T19:15:51.846Z,21.90
2022-12-14T19:18:18.927Z,22.35
2022-12-14T19:20:45.589Z,19.77
2022-12-14T19:23:17.603Z,18.48
2022-12-14T19:25:44.926Z,21.50
2022-12-14T19:28:30.706Z,19.50
2022-12-14T19:30:59.027Z,18.35
2022-12-14T19:33:26.855Z,20.25
2022-12-14T19:35:53.813Z,23.40
2022-12-14T19:38:20.593Z,22.55
2022-12-14T19:40:59.830Z,21.73
2022-12-14T19:43:26.957Z,22.67
2022-12-14T19:45:53.654Z,24.20
2022-12-14T19:48:20.529Z,24.20
2022-12-14T19:50:49.391Z,23.60
2022-12-14T19:53:21.621Z,25.38
2022-12-14T19:55:52.598Z,21.33
2022-12-14T19:58:22.034Z,26.02
2022-12-14T20:00:50.121Z,22.98
2022-12-14T20:03:17.629Z,22.33
2022-12-14T20:05:58.769Z,21.30
2022-12-14T20:08:27.869Z,23.33
2022-12-14T20:10:55.241Z,21.55
2022-12-14T20:13:23.418Z,21.30
2022-12-14T20:15:59.817Z,21.52
2022-12-14T20:18:27.200Z,21.65
2022-12-14T20:21:01.781Z,19.77
2022-12-14T20:23:29.047Z,21.67
2022-12-14T20:26:01.139Z,21.38
2022-12-14T20:28:28.084Z,22.50
2022-12-14T20:30:54.822Z,20.08
2022-12-14T20:33:26.439Z,25.48
2022-12-14T20:35:56.671Z,23.17
2022-12-14T20:38:23.346Z,26.92
2022-12-14T20:40:50.258Z,23.70
2022-12-14T20:43:16.981Z,24.17
2022-12-14T20:45:46.703Z,23.77
2022-12-14T20:48:13.722Z,22.67
2022-12-14T20:50:42.630Z,23.90
2022-12-14T20:53:09.342Z,24.17
2022-12-14T20:55:36.225Z,24.35
2022-12-14T20:58:02.908Z,26.48
2022-12-14T21:00:29.741Z,28.02
2022-12-14T21:02:56.736Z,23.38
2022-12-14T21:05:23.623Z,28.02
2022-12-14T21:07:50.361Z,23.83
2022-12-14T21:10:17.133Z,23.73
2022-12-14T21:12:44.594Z,21.58
2022-12-14T21:15:11.316Z,26.27
2022-12-14T21:17:39.160Z,22.05
2022-12-14T21:20:06.347Z,25.55
2022-12-14T21:22:35.289Z,24.35
2022-12-14T21:25:04.186Z,23.98
2022-12-14T21:27:32.911Z,24.70
2022-12-14T21:30:03.397Z,22.73
2022-12-14T21:32:30.231Z,22.80
2022-12-14T21:34:57.054Z,24.75
2022-12-14T21:37:24.173Z,23.42
2022-12-14T21:39:54.317Z,23.83
2022-12-14T21:42:24.046Z,23.52
2022-12-14T21:44:52.862Z,23.08
2022-12-14T21:47:26.894Z,24.88
2022-12-14T21:49:54.890Z,27.45
2022-12-14T21:52:30.497Z,23.77
2022-12-14T21:54:59.257Z,25.05
2022-12-14T21:57:49.655Z,22.77
2022-12-14T22:00:18.220Z,27.23
2022-12-14T22:02:45.008Z,26.52
2022-12-14T22:05:11.849Z,31.25
2022-12-14T22:07:38.629Z,29.77
2022-12-14T22:10:05.855Z,26.52
2022-12-14T22:12:33.113Z,27.58
2022-12-14T22:15:00.378Z,30.30
2022-12-14T22:17:27.115Z,27.23
2022-12-14T22:19:55.190Z,29.67
2022-12-14T22:22:22.532Z,26.55
2022-12-14T22:24:51.287Z,26.10
2022-12-14T22:27:19.203Z,25.40
2022-12-14T22:29:45.875Z,24.70
2022-12-14T22:32:13.528Z,26.48
2022-12-14T22:34:40.299Z,26.10
2022-12-14T22:37:06.972Z,26.30
2022-12-14T22:39:33.641Z,26.02
2022-12-14T22:42:00.310Z,26.23
2022-12-14T22:44:27.085Z,23.88
2022-12-14T22:46:53.767Z,27.08
2022-12-14T22:49:20.441Z,29.20
2022-12-14T22:51:47.610Z,24.00
2022-12-14T22:54:22.436Z,29.13
2022-12-14T22:57:00.346Z,24.27
2022-12-14T22:59:36.457Z,26.65
2022-12-14T23:02:03.912Z,23.92
2022-12-14T23:04:31.064Z,29.45
2022-12-14T23:06:57.733Z,26.83
2022-12-14T23:09:43.079Z,27.35
2022-12-14T23:12:28.447Z,24.85
2022-12-14T23:15:13.772Z,26.48
2022-12-14T23:17:59.171Z,28.95
2022-12-14T23:20:44.431Z,24.17
2022-12-14T23:23:30.170Z,26.77
2022-12-14T23:26:20.441Z,26.58
2022-12-14T23:29:05.730Z,25.20
2022-12-14T23:31:51.298Z,26.50
2022-12-14T23:34:36.686Z,26.98
2022-12-14T23:37:21.942Z,23.25
2022-12-14T23:40:07.457Z,22.98
2022-12-14T23:42:52.766Z,23.83
2022-12-14T23:45:38.648Z,23.10
2022-12-14T23:48:23.889Z,25.67
2022-12-14T23:51:09.252Z,26.35
2022-12-14T23:53:54.624Z,27.02
2022-12-14T23:56:40.243Z,26.17
2022-12-14T23:59:31.531Z,26.98
